createdAt,value
2019-02-19T00:01:15.069Z,5.48
2019-02-19T00:04:17.335Z,5.54
2019-02-19T00:07:19.395Z,5.59
2019-02-19T00:10:21.602Z,5.63
2019-02-19T00:13:23.701Z,5.69
2019-02-19T00:16:26.007Z,5.74
2019-02-19T00:19:28.254Z,5.70
2019-02-19T00:22:30.371Z,5.64
2019-02-19T00:25:32.524Z,5.64
2019-02-19T00:28:34.864Z,5.64
2019-02-19T00:31:36.963Z,5.58
2019-02-19T00:34:39.194Z,5.52
2019-02-19T00:37:41.300Z,5.52
2019-02-19T00:40:43.430Z,5.31
2019-02-19T00:43:46.986Z,5.26
2019-02-19T00:46:51.140Z,5.35
2019-02-19T00:53:32.430Z,5.44
2019-02-19T01:11:06.029Z,5.21
2019-02-19T01:14:08.241Z,5.14
2019-02-19T01:17:13.778Z,5.22
2019-02-19T01:20:15.914Z,5.23
2019-02-19T01:23:18.315Z,5.18
2019-02-19T01:26:20.494Z,5.22
2019-02-19T01:29:23.415Z,5.22
2019-02-19T01:32:25.465Z,5.30
2019-02-19T01:35:27.695Z,5.33
2019-02-19T01:38:29.798Z,5.36
2019-02-19T01:41:31.890Z,5.38
2019-02-19T01:44:33.932Z,5.40
2019-02-19T01:47:36.078Z,5.31
2019-02-19T01:50:38.105Z,5.25
2019-02-19T01:53:40.226Z,5.33
2019-02-19T01:56:44.274Z,5.42
2019-02-19T01:59:47.272Z,5.40
2019-02-19T02:02:49.297Z,5.50
2019-02-19T02:05:51.514Z,5.55
2019-02-19T02:08:53.711Z,5.62
2019-02-19T02:11:55.961Z,5.69
2019-02-19T02:14:58.306Z,5.79
2019-02-19T02:18:01.098Z,5.85
2019-02-19T02:31:56.806Z,5.59
2019-02-19T02:34:59.646Z,5.44
2019-02-19T02:38:01.745Z,5.26
2019-02-19T02:41:05.829Z,5.32
2019-02-19T02:44:07.896Z,5.38
2019-02-19T02:47:10.099Z,5.47
2019-02-19T02:50:12.490Z,5.54
2019-02-19T02:53:15.866Z,5.57
2019-02-19T02:56:18.060Z,5.60
2019-02-19T02:59:20.009Z,5.64
2019-02-19T03:02:22.117Z,5.69
2019-02-19T03:05:25.339Z,5.66
2019-02-19T03:08:27.520Z,5.54
2019-02-19T03:11:29.606Z,5.49
2019-02-19T03:14:31.766Z,5.44
2019-02-19T03:17:33.789Z,5.35
2019-02-19T03:20:36.436Z,5.26
2019-02-19T03:27:15.840Z,5.33
2019-02-19T03:30:18.041Z,5.34
2019-02-19T03:33:20.443Z,5.33
2019-02-19T03:36:22.735Z,5.36
2019-02-19T03:39:24.808Z,5.36
2019-02-19T03:42:26.942Z,5.36
2019-02-19T03:45:29.212Z,5.44
2019-02-19T03:48:31.290Z,5.45
2019-02-19T03:51:33.667Z,5.41
2019-02-19T03:54:35.724Z,5.46
2019-02-19T03:57:38.501Z,5.41
2019-02-19T04:00:40.636Z,5.43
2019-02-19T04:03:42.803Z,5.44
2019-02-19T04:06:44.919Z,5.43
2019-02-19T04:09:47.132Z,5.47
2019-02-19T04:12:49.348Z,5.52
2019-02-19T04:15:53.339Z,5.58
2019-02-19T04:18:56.206Z,5.62
2019-02-19T04:21:58.577Z,5.63
2019-02-19T04:25:01.040Z,5.61
2019-02-19T04:28:04.998Z,5.70
2019-02-19T04:31:07.140Z,5.67
2019-02-19T04:34:09.141Z,5.68
2019-02-19T04:37:11.953Z,5.74
2019-02-19T04:40:14.040Z,5.80
2019-02-19T04:43:17.156Z,5.85
2019-02-19T04:46:19.190Z,5.85
2019-02-19T04:49:21.202Z,5.86
2019-02-19T04:52:23.310Z,5.92
2019-02-19T04:55:25.310Z,5.93
2019-02-19T04:58:27.182Z,5.93
2019-02-19T05:01:29.255Z,5.86
2019-02-19T05:04:31.236Z,5.87
2019-02-19T05:07:33.180Z,5.86
2019-02-19T05:10:35.172Z,5.92
2019-02-19T05:13:37.133Z,5.94
2019-02-19T05:16:41.040Z,5.91
2019-02-19T05:19:42.952Z,5.91
2019-02-19T05:22:45.289Z,5.88
2019-02-19T05:25:47.235Z,5.86
2019-02-19T05:28:49.259Z,5.93
2019-02-19T05:31:51.295Z,5.97
2019-02-19T05:34:53.444Z,6.00
2019-02-19T05:37:55.745Z,5.98
2019-02-19T05:40:57.715Z,5.93
2019-02-19T05:43:59.634Z,5.97
2019-02-19T05:47:01.482Z,6.00
2019-02-19T05:50:05.673Z,6.02
2019-02-19T05:53:07.661Z,5.98
2019-02-19T05:56:09.629Z,5.91
2019-02-19T05:59:11.500Z,5.83
2019-02-19T06:02:13.453Z,5.75
2019-02-19T06:05:15.405Z,5.70
2019-02-19T06:08:17.356Z,5.66
2019-02-19T06:11:19.244Z,5.64
2019-02-19T06:14:21.121Z,5.67
2019-02-19T06:17:23.074Z,5.81
2019-02-19T06:20:25.455Z,6.12
2019-02-19T06:23:31.643Z,6.39
2019-02-19T06:26:34.534Z,6.62
2019-02-19T06:29:36.502Z,6.89
2019-02-19T06:32:38.553Z,7.18
2019-02-19T06:35:40.391Z,7.48
2019-02-19T06:38:42.315Z,7.70
2019-02-19T06:41:44.190Z,7.75
2019-02-19T06:44:46.078Z,7.80
2019-02-19T06:47:47.993Z,7.98
2019-02-19T06:50:49.902Z,8.19
2019-02-19T06:53:52.154Z,8.80
2019-02-19T06:56:54.240Z,9.42
2019-02-19T06:59:56.146Z,10.04
2019-02-19T07:03:00.006Z,10.50
2019-02-19T07:06:01.946Z,10.92
2019-02-19T07:09:04.753Z,11.21
2019-02-19T07:12:07.871Z,11.68
2019-02-19T07:15:09.756Z,12.07
2019-02-19T07:18:12.037Z,12.37
2019-02-19T07:21:13.893Z,12.82
2019-02-19T07:24:16.144Z,13.30
2019-02-19T07:27:18.063Z,13.80
2019-02-19T07:30:20.171Z,14.29
2019-02-19T07:33:22.087Z,14.72
2019-02-19T07:36:23.958Z,15.05
2019-02-19T07:39:26.156Z,15.18
2019-02-19T07:42:28.039Z,15.37
2019-02-19T07:45:30.844Z,15.62
2019-02-19T07:48:32.729Z,15.84
2019-02-19T07:51:34.645Z,16.10
2019-02-19T07:54:36.825Z,16.46
2019-02-19T07:57:38.723Z,16.52
2019-02-19T08:00:40.703Z,16.83
2019-02-19T08:03:42.641Z,17.24
2019-02-19T08:06:45.624Z,17.51
2019-02-19T08:09:47.497Z,17.62
2019-02-19T08:12:49.526Z,17.71
2019-02-19T08:15:51.431Z,17.74
2019-02-19T08:18:53.340Z,17.84
2019-02-19T08:21:55.272Z,17.90
2019-02-19T08:24:57.238Z,17.90
2019-02-19T08:27:59.213Z,17.96
2019-02-19T08:31:01.147Z,17.95
2019-02-19T08:34:03.155Z,17.77
2019-02-19T08:37:05.049Z,17.46
2019-02-19T08:40:08.486Z,17.09
2019-02-19T08:43:10.426Z,16.81
2019-02-19T08:46:12.274Z,16.74
2019-02-19T08:49:14.274Z,16.75
2019-02-19T08:52:16.258Z,16.59
2019-02-19T08:55:18.380Z,16.33
2019-02-19T08:58:20.304Z,15.93
2019-02-19T09:01:22.209Z,15.67
2019-02-19T09:04:24.114Z,15.52
2019-02-19T09:07:26.045Z,15.45
2019-02-19T09:10:27.980Z,15.39
2019-02-19T09:13:29.909Z,15.36
2019-02-19T09:16:31.842Z,15.33
2019-02-19T09:19:33.842Z,15.37
2019-02-19T09:22:35.732Z,15.27
2019-02-19T09:25:37.762Z,15.16
2019-02-19T09:28:39.674Z,15.12
2019-02-19T09:31:41.538Z,15.11
2019-02-19T09:34:43.459Z,15.09
2019-02-19T09:37:45.421Z,15.11
2019-02-19T09:40:47.323Z,15.20
2019-02-19T09:43:49.301Z,15.23
2019-02-19T09:46:51.196Z,15.23
2019-02-19T09:49:53.141Z,15.27
2019-02-19T09:52:59.990Z,15.47
2019-02-19T09:55:59.752Z,15.69
2019-02-19T09:59:01.715Z,15.87
2019-02-19T10:02:03.628Z,16.01
2019-02-19T10:05:09.097Z,16.12
2019-02-19T10:08:11.099Z,16.21
2019-02-19T10:11:13.127Z,16.32
2019-02-19T10:14:15.127Z,16.43
2019-02-19T10:17:17.024Z,16.48
2019-02-19T10:20:18.968Z,16.56
2019-02-19T10:23:20.872Z,16.61
2019-02-19T10:26:23.363Z,16.65
2019-02-19T10:29:25.313Z,16.65
2019-02-19T10:32:27.297Z,16.66
2019-02-19T10:35:29.285Z,16.61
2019-02-19T10:38:31.246Z,16.61
2019-02-19T10:41:33.180Z,16.46
2019-02-19T10:44:35.112Z,16.46
2019-02-19T10:47:37.031Z,16.51
2019-02-19T10:50:38.987Z,16.62
2019-02-19T10:53:40.959Z,16.69
2019-02-19T10:56:43.013Z,16.62
2019-02-19T10:59:44.954Z,16.70
2019-02-19T11:02:46.941Z,16.67
2019-02-19T11:05:48.879Z,16.67
2019-02-19T11:08:50.925Z,16.65
2019-02-19T11:11:52.830Z,16.58
2019-02-19T11:14:54.792Z,16.36
2019-02-19T11:17:56.690Z,16.17
2019-02-19T11:20:58.647Z,16.13
2019-02-19T11:24:00.668Z,16.12
2019-02-19T11:27:02.702Z,16.06
2019-02-19T11:30:08.218Z,16.08
2019-02-19T11:33:10.173Z,16.07
2019-02-19T11:36:12.125Z,16.08
2019-02-19T11:39:14.241Z,16.14
2019-02-19T11:42:16.121Z,16.14
2019-02-19T11:45:18.633Z,16.14
2019-02-19T11:48:20.558Z,16.21
2019-02-19T11:51:22.507Z,16.19
2019-02-19T11:54:24.435Z,16.11
2019-02-19T11:57:26.539Z,16.04
2019-02-19T12:00:30.349Z,16.02
2019-02-19T12:03:32.322Z,15.95
2019-02-19T12:06:34.216Z,15.92
2019-02-19T12:09:36.203Z,15.96
2019-02-19T12:12:38.131Z,15.95
2019-02-19T12:15:40.201Z,15.95
2019-02-19T12:18:46.305Z,16.08
2019-02-19T12:21:45.985Z,16.16
2019-02-19T12:24:47.902Z,16.19
2019-02-19T12:27:49.901Z,16.22
2019-02-19T12:30:51.838Z,16.11
2019-02-19T12:33:54.029Z,16.20
2019-02-19T12:36:55.964Z,16.12
2019-02-19T12:39:57.883Z,16.17
2019-02-19T12:42:59.834Z,16.17
2019-02-19T12:46:01.912Z,16.19
2019-02-19T12:49:05.315Z,16.10
2019-02-19T12:52:07.234Z,16.18
2019-02-19T12:55:09.832Z,16.27
2019-02-19T12:58:11.914Z,16.21
2019-02-19T13:01:13.836Z,16.14
2019-02-19T13:04:15.798Z,16.10
2019-02-19T13:07:17.770Z,16.05
2019-02-19T13:10:19.795Z,16.05
2019-02-19T13:13:21.761Z,16.09
2019-02-19T13:16:23.925Z,16.08
2019-02-19T13:19:25.919Z,16.01
2019-02-19T13:22:27.894Z,16.01
2019-02-19T13:25:29.802Z,15.96
2019-02-19T13:28:31.969Z,15.99
2019-02-19T13:31:33.895Z,16.03
2019-02-19T13:34:36.532Z,16.02
2019-02-19T13:37:38.512Z,16.02
2019-02-19T13:40:40.400Z,16.04
2019-02-19T13:43:42.344Z,16.05
2019-02-19T13:46:44.279Z,16.08
2019-02-19T13:49:46.181Z,16.01
2019-02-19T13:52:52.953Z,16.00
2019-02-19T13:55:56.687Z,15.89
2019-02-19T13:58:58.780Z,15.79
2019-02-19T14:02:00.748Z,15.72
2019-02-19T14:05:02.925Z,15.64
2019-02-19T14:08:14.026Z,15.61
2019-02-19T14:11:09.157Z,15.42
2019-02-19T14:14:12.983Z,15.34
2019-02-19T14:17:15.286Z,15.35
2019-02-19T14:20:24.924Z,15.37
2019-02-19T14:23:45.543Z,15.45
2019-02-19T14:26:58.175Z,15.30
2019-02-19T14:30:05.070Z,15.16
2019-02-19T14:33:08.979Z,15.18
2019-02-19T14:36:25.667Z,15.04
2019-02-19T14:39:46.136Z,15.02
2019-02-19T14:42:55.846Z,14.88
2019-02-19T14:46:02.651Z,14.87
2019-02-19T14:49:09.158Z,14.84
2019-02-19T14:52:29.792Z,14.76
2019-02-19T14:55:36.022Z,14.67
2019-02-19T14:58:52.214Z,14.55
2019-02-19T15:02:05.198Z,14.40
2019-02-19T15:05:15.705Z,14.21
2019-02-19T15:08:31.542Z,14.02
2019-02-19T15:11:52.196Z,13.93
2019-02-19T15:14:58.623Z,13.83
2019-02-19T15:18:02.705Z,13.73
2019-02-19T15:21:07.504Z,13.74
2019-02-19T15:24:23.721Z,13.84
2019-02-19T15:27:30.438Z,13.84
2019-02-19T15:30:46.336Z,13.81
2019-02-19T15:34:07.377Z,13.78
2019-02-19T15:37:11.849Z,13.70
2019-02-19T15:40:18.603Z,13.61
2019-02-19T15:43:31.551Z,13.58
2019-02-19T15:46:41.322Z,13.57
2019-02-19T15:49:51.236Z,13.31
2019-02-19T15:52:57.532Z,13.28
2019-02-19T15:56:01.270Z,13.23
2019-02-19T15:59:05.136Z,13.22
2019-02-19T16:02:18.186Z,13.26
2019-02-19T16:05:31.111Z,13.26
2019-02-19T16:08:36.118Z,13.30
2019-02-19T16:11:40.012Z,13.37
2019-02-19T16:15:00.720Z,13.43
2019-02-19T16:18:25.078Z,13.44
2019-02-19T16:21:34.873Z,13.39
2019-02-19T16:24:38.646Z,13.27
2019-02-19T16:27:48.280Z,13.22
2019-02-19T16:30:59.187Z,13.25
2019-02-19T16:34:15.090Z,13.25
2019-02-19T16:37:19.955Z,13.17
2019-02-19T16:40:25.223Z,13.06
2019-02-19T16:43:36.833Z,13.03
2019-02-19T16:46:49.251Z,13.03
2019-02-19T16:50:07.600Z,12.92
2019-02-19T16:53:27.497Z,12.65
2019-02-19T16:56:31.472Z,12.59
2019-02-19T16:59:44.288Z,12.60
2019-02-19T17:02:57.226Z,12.52
2019-02-19T17:06:01.131Z,12.51
2019-02-19T17:09:08.091Z,12.54
2019-02-19T17:12:20.056Z,12.58
2019-02-19T17:15:41.744Z,12.53
2019-02-19T17:18:45.563Z,12.51
2019-02-19T17:21:52.071Z,12.40
2019-02-19T17:25:12.903Z,12.35
2019-02-19T17:28:22.834Z,12.18
2019-02-19T17:31:26.637Z,12.11
2019-02-19T17:34:48.263Z,11.99
2019-02-19T17:37:52.027Z,11.93
2019-02-19T17:40:56.113Z,11.76
2019-02-19T17:44:00.192Z,11.72
2019-02-19T17:47:19.765Z,11.57
2019-02-19T17:50:38.220Z,11.53
2019-02-19T17:53:41.649Z,11.40
2019-02-19T17:56:54.047Z,11.31
2019-02-19T18:00:04.094Z,11.25
2019-02-19T18:03:17.132Z,11.29
2019-02-19T18:06:26.706Z,11.23
2019-02-19T18:09:48.122Z,11.14
2019-02-19T18:12:58.605Z,11.06
2019-02-19T18:16:20.829Z,11.00
2019-02-19T18:19:22.820Z,10.98
2019-02-19T18:22:24.839Z,10.75
2019-02-19T18:25:28.078Z,10.70
2019-02-19T18:28:30.004Z,10.62
2019-02-19T18:31:32.007Z,10.57
2019-02-19T18:34:34.635Z,10.58
2019-02-19T18:37:37.513Z,10.62
2019-02-19T18:40:39.394Z,10.63
2019-02-19T18:43:44.903Z,10.56
2019-02-19T18:46:47.535Z,10.53
2019-02-19T18:49:50.539Z,10.45
2019-02-19T18:52:52.483Z,10.44
2019-02-19T18:55:54.850Z,10.43
2019-02-19T18:58:58.550Z,10.44
2019-02-19T19:02:01.904Z,10.45
2019-02-19T19:05:06.026Z,10.43
2019-02-19T19:08:08.509Z,10.44
2019-02-19T19:11:10.531Z,10.47
2019-02-19T19:14:12.525Z,10.38
2019-02-19T19:17:16.201Z,10.31
2019-02-19T19:20:19.130Z,10.25
2019-02-19T19:23:21.680Z,10.21
2019-02-19T19:26:25.425Z,10.19
2019-02-19T19:29:29.163Z,10.03
2019-02-19T19:32:31.518Z,9.90
2019-02-19T19:35:35.281Z,9.78
2019-02-19T19:38:39.414Z,9.65
2019-02-19T19:41:41.602Z,9.40
2019-02-19T19:44:43.659Z,9.32
2019-02-19T19:47:46.069Z,9.19
2019-02-19T19:50:49.445Z,9.12
2019-02-19T19:53:53.139Z,9.04
2019-02-19T19:56:55.144Z,9.01
2019-02-19T19:59:57.215Z,8.92
2019-02-19T20:03:00.027Z,8.77
2019-02-19T20:06:06.330Z,8.69
2019-02-19T20:09:10.718Z,8.59
2019-02-19T20:12:14.677Z,8.57
2019-02-19T20:15:16.709Z,8.55
2019-02-19T20:18:20.989Z,8.49
2019-02-19T20:21:26.706Z,8.42
2019-02-19T20:24:29.586Z,8.32
2019-02-19T20:27:31.519Z,8.28
2019-02-19T20:30:37.114Z,8.20
2019-02-19T20:33:39.366Z,8.18
2019-02-19T20:36:43.483Z,8.16
2019-02-19T20:39:47.867Z,8.11
2019-02-19T20:42:50.487Z,8.02
2019-02-19T20:45:53.909Z,7.93
2019-02-19T20:48:55.912Z,7.85
2019-02-19T20:51:58.075Z,7.82
2019-02-19T20:55:04.739Z,7.77
2019-02-19T20:58:08.639Z,7.77
2019-02-19T21:01:10.662Z,7.76
2019-02-19T21:04:12.568Z,7.76
2019-02-19T21:07:18.499Z,7.73
2019-02-19T21:10:20.411Z,7.68
2019-02-19T21:13:22.722Z,7.64
2019-02-19T21:16:25.236Z,7.63
2019-02-19T21:19:27.133Z,7.58
2019-02-19T21:22:33.605Z,7.51
2019-02-19T21:25:37.459Z,7.41
2019-02-19T21:28:39.607Z,7.38
2019-02-19T21:31:43.119Z,7.38
2019-02-19T21:34:45.077Z,7.37
2019-02-19T21:37:46.990Z,7.31
2019-02-19T21:40:48.984Z,7.28
2019-02-19T21:43:52.488Z,7.21
2019-02-19T21:46:56.306Z,7.11
2019-02-19T21:49:58.240Z,7.07
2019-02-19T21:53:00.197Z,6.96
2019-02-19T21:56:02.115Z,6.93
2019-02-19T21:59:04.057Z,6.95
2019-02-19T22:02:05.961Z,6.94
2019-02-19T22:05:07.970Z,6.94
2019-02-19T22:08:11.212Z,7.00
2019-02-19T22:11:13.236Z,7.05
2019-02-19T22:14:15.202Z,7.04
2019-02-19T22:17:17.247Z,7.01
2019-02-19T22:20:36.350Z,7.02
2019-02-19T22:23:38.259Z,6.96
2019-02-19T22:26:40.282Z,6.93
2019-02-19T22:29:42.283Z,6.96
2019-02-19T22:32:44.487Z,7.01
2019-02-19T22:35:46.409Z,7.01
2019-02-19T22:38:48.382Z,7.13
2019-02-19T22:41:50.345Z,7.26
2019-02-19T22:44:52.351Z,7.38
2019-02-19T22:47:54.317Z,7.49
2019-02-19T22:50:56.269Z,7.57
2019-02-19T22:54:00.029Z,7.54
2019-02-19T22:57:01.943Z,7.39
2019-02-19T23:00:12.085Z,7.34
2019-02-19T23:03:20.625Z,7.25
2019-02-19T23:06:22.906Z,7.11
2019-02-19T23:09:24.926Z,7.03
2019-02-19T23:12:26.946Z,7.04
2019-02-19T23:15:28.906Z,6.99
2019-02-19T23:18:32.320Z,6.96
2019-02-19T23:21:34.244Z,6.98
2019-02-19T23:24:36.139Z,7.10
2019-02-19T23:27:38.066Z,7.22
2019-02-19T23:30:40.021Z,7.26
2019-02-19T23:33:42.057Z,7.33
2019-02-19T23:36:45.833Z,7.36
2019-02-19T23:39:47.715Z,7.48
2019-02-19T23:42:50.641Z,7.38
2019-02-19T23:45:52.551Z,7.34
2019-02-19T23:48:54.503Z,7.36
2019-02-19T23:51:56.448Z,7.39
2019-02-19T23:54:58.395Z,7.34
2019-02-19T23:58:00.298Z,7.39
